Time;durP1;ratioP1;P1;durP2;ratioP2;P2;SDS_P1;SDS_P2;PMS_P1;PMS_P2;Temp;Humidity;BMP_temperature;BMP_pressure;BME280_temperature;BME280_humidity;BME280_pressure;Samples;Min_cycle;Max_cycle;Signal;HPM_P1;HPM_P2
2022/03/24 00:02:21;;;;;;;20.02;13.23;;;;;;;8.04;51.73;101509.22;5113447;28;20380;-78
2022/03/24 00:04:49;;;;;;;18.60;12.97;;;;;;;8.02;52.19;101505.88;5113556;28;20400;-78
2022/03/24 00:07:14;;;;;;;19.03;13.20;;;;;;;8.01;52.80;101506.91;5113312;28;20384;-78
2022/03/24 00:09:39;;;;;;;19.13;13.33;;;;;;;7.98;52.28;101509.19;5098980;28;20914;-78
2022/03/24 00:12:06;;;;;;;20.73;13.97;;;;;;;7.96;53.17;101506.69;5113572;28;20381;-78
2022/03/24 00:14:31;;;;;;;22.83;15.18;;;;;;;7.93;52.63;101507.09;5095076;28;20397;-78
2022/03/24 00:16:57;;;;;;;22.42;14.02;;;;;;;7.93;52.66;101512.50;5095122;28;20508;-78
2022/03/24 00:19:22;;;;;;;20.13;14.43;;;;;;;7.91;52.89;101500.22;5109384;28;20902;-79
2022/03/24 00:21:48;;;;;;;16.43;12.40;;;;;;;7.90;52.80;101499.41;5113477;28;20384;-78
2022/03/24 00:24:14;;;;;;;19.30;12.93;;;;;;;7.82;52.68;101504.97;5106743;28;20562;-78
2022/03/24 00:26:40;;;;;;;16.55;12.52;;;;;;;7.78;53.44;101504.53;5089330;28;20940;-78
2022/03/24 00:29:05;;;;;;;17.33;12.35;;;;;;;7.73;52.96;101493.53;5087563;28;20407;-78
2022/03/24 00:31:31;;;;;;;16.37;12.37;;;;;;;7.71;53.38;101492.88;5092284;28;20400;-79
2022/03/24 00:33:57;;;;;;;15.23;12.83;;;;;;;7.71;53.41;101492.06;5093299;28;20449;-78
2022/03/24 00:36:23;;;;;;;16.87;12.33;;;;;;;7.67;53.47;101493.50;5095770;28;20469;-78
2022/03/24 00:38:52;;;;;;;17.98;13.15;;;;;;;7.62;53.54;101501.34;5104010;28;20411;-78
2022/03/24 00:41:21;;;;;;;17.02;12.88;;;;;;;7.56;53.72;101500.31;5104716;28;20387;-78
2022/03/24 00:43:50;;;;;;;19.25;12.32;;;;;;;7.51;53.14;101494.66;5094518;28;20793;-78
2022/03/24 00:46:22;;;;;;;16.08;12.88;;;;;;;7.46;53.50;101493.59;5090874;28;20388;-78
2022/03/24 00:48:49;;;;;;;17.88;12.95;;;;;;;7.40;53.46;101487.16;5088017;28;20401;-78
2022/03/24 00:51:15;;;;;;;17.50;13.00;;;;;;;7.35;53.42;101484.19;5098801;28;20475;-78
2022/03/24 00:53:41;;;;;;;18.47;12.53;;;;;;;7.31;53.83;101483.75;5102211;28;20503;-78
2022/03/24 00:56:06;;;;;;;16.58;13.57;;;;;;;7.22;53.79;101482.25;5101347;28;20445;-78
2022/03/24 00:58:32;;;;;;;17.97;12.80;;;;;;;7.24;53.83;101487.47;5112370;28;20793;-78
2022/03/24 01:00:57;;;;;;;17.00;13.10;;;;;;;7.22;54.72;101492.22;5096888;28;20460;-78
2022/03/24 01:03:23;;;;;;;18.23;12.00;;;;;;;7.19;54.54;101481.81;5112666;28;20389;-78
2022/03/24 01:05:48;;;;;;;19.13;12.67;;;;;;;7.17;54.52;101484.72;5112333;28;20411;-78
2022/03/24 01:08:16;;;;;;;16.53;13.07;;;;;;;7.20;54.36;101478.09;5088263;28;20404;-78
2022/03/24 01:10:42;;;;;;;15.80;11.98;;;;;;;7.19;54.73;101484.50;5075420;28;20443;-78
2022/03/24 01:13:08;;;;;;;17.73;12.95;;;;;;;7.15;54.79;101478.69;5112226;28;20467;-78
2022/03/24 01:15:35;;;;;;;18.23;13.32;;;;;;;7.13;54.21;101479.91;5112143;28;20446;-78
2022/03/24 01:18:01;;;;;;;15.10;12.17;;;;;;;7.05;54.55;101483.59;5071706;28;20462;-78
2022/03/24 01:20:28;;;;;;;17.85;13.20;;;;;;;7.01;54.40;101478.81;5077425;28;20403;-78
2022/03/24 01:22:54;;;;;;;18.33;13.00;;;;;;;6.98;55.29;101482.72;5071761;28;20392;-78
2022/03/24 01:25:19;;;;;;;16.73;12.63;;;;;;;6.95;55.07;101479.59;5093779;28;20487;-78
2022/03/24 01:27:45;;;;;;;22.20;14.23;;;;;;;6.93;55.13;101479.78;5098457;28;20404;-78
2022/03/24 01:30:10;;;;;;;20.08;13.30;;;;;;;6.92;55.51;101478.09;5089597;28;20411;-78
2022/03/24 01:32:36;;;;;;;19.17;12.65;;;;;;;6.88;55.20;101476.88;5093939;28;20914;-78
2022/03/24 01:35:07;;;;;;;16.98;12.55;;;;;;;6.87;54.95;101474.34;5112010;28;20385;-78
2022/03/24 01:37:33;;;;;;;16.77;12.25;;;;;;;6.85;55.24;101476.41;5111958;28;20384;-78
2022/03/24 01:39:59;;;;;;;14.47;12.17;;;;;;;6.84;55.39;101472.03;5077182;28;20411;-78
2022/03/24 01:42:26;;;;;;;16.03;12.53;;;;;;;6.84;55.38;101475.56;5094479;28;20417;-79
2022/03/24 01:44:54;;;;;;;17.23;12.32;;;;;;;6.84;55.73;101480.13;5100067;28;20578;-78
2022/03/24 01:47:19;;;;;;;16.65;12.50;;;;;;;6.82;56.19;101469.53;5106644;28;20399;-78
2022/03/24 01:49:49;;;;;;;15.63;12.27;;;;;;;6.82;55.39;101476.81;5099934;28;20961;-78
2022/03/24 01:52:19;;;;;;;17.00;13.30;;;;;;;6.78;55.69;101479.06;5111777;28;20459;-78
2022/03/24 01:54:47;;;;;;;16.65;13.18;;;;;;;6.77;55.53;101470.13;5091723;28;20404;-78
2022/03/24 01:57:15;;;;;;;18.08;12.60;;;;;;;6.73;55.97;101463.47;5100502;28;20398;-78
2022/03/24 01:59:40;;;;;;;18.52;12.05;;;;;;;6.74;55.90;101465.16;5107354;28;20403;-78
2022/03/24 02:02:10;;;;;;;18.33;12.85;;;;;;;6.70;55.89;101468.41;5111668;28;20393;-78
2022/03/24 02:04:36;;;;;;;18.23;12.38;;;;;;;6.68;55.51;101470.47;5111471;28;20476;-78
2022/03/24 02:07:06;;;;;;;15.57;12.32;;;;;;;6.66;55.99;101467.97;5111803;28;20384;-78
2022/03/24 02:09:33;;;;;;;15.23;11.48;;;;;;;6.61;55.79;101465.03;5098639;28;20415;-78
2022/03/24 02:11:59;;;;;;;15.18;11.50;;;;;;;6.47;55.62;101474.03;5081744;28;20406;-78
2022/03/24 02:14:26;;;;;;;15.70;12.65;;;;;;;6.41;56.02;101469.41;5055822;28;20414;-78
2022/03/24 02:16:51;;;;;;;16.80;12.35;;;;;;;6.39;55.80;101465.25;5077087;28;20399;-78
2022/03/24 02:19:20;;;;;;;16.43;12.07;;;;;;;6.38;55.75;101469.81;5096193;28;20922;-78
2022/03/24 02:21:46;;;;;;;18.63;12.60;;;;;;;6.34;56.01;101471.22;5092244;28;20415;-78
2022/03/24 02:24:14;;;;;;;17.38;11.45;;;;;;;6.29;55.68;101472.81;5100529;28;20400;-78
2022/03/24 02:26:42;;;;;;;16.70;12.45;;;;;;;6.23;55.96;101466.31;5105173;28;20739;-78
2022/03/24 02:29:10;;;;;;;18.90;13.15;;;;;;;6.21;56.37;101468.38;5068702;28;20832;-78
2022/03/24 02:31:38;;;;;;;17.52;13.63;;;;;;;6.13;56.60;101471.19;5089823;28;20405;-78
2022/03/24 02:36:49;;;;;;;17.33;12.43;;;;;;;5.97;57.22;101466.88;5106053;28;20483;-78
2022/03/24 02:39:14;;;;;;;18.23;13.10;;;;;;;5.98;57.06;101463.19;5092091;28;20403;-78
2022/03/24 02:42:15;;;;;;;18.23;13.87;;;;;;;6.02;57.25;101463.63;5111312;28;20385;-78
2022/03/24 02:44:46;;;;;;;18.75;13.45;;;;;;;6.07;57.42;101455.81;5060487;28;20458;-78
2022/03/24 02:47:13;;;;;;;21.20;13.03;;;;;;;6.09;57.48;101465.34;5078235;28;20519;-78
2022/03/24 02:49:39;;;;;;;17.25;13.07;;;;;;;6.12;57.56;101462.31;5107686;28;20404;-78
2022/03/24 02:52:06;;;;;;;19.38;14.13;;;;;;;6.18;58.28;101460.69;5111276;28;20388;-78
2022/03/24 02:54:32;;;;;;;21.00;13.87;;;;;;;6.20;57.90;101464.00;5074326;28;20435;-78
2022/03/24 02:56:58;;;;;;;20.40;13.13;;;;;;;6.24;57.69;101463.44;5104335;28;20407;-78
2022/03/24 02:59:24;;;;;;;17.87;12.80;;;;;;;6.29;57.78;101460.16;5087642;28;20402;-78
2022/03/24 03:02:00;;;;;;;15.67;12.57;;;;;;;6.31;57.08;101466.22;5104861;28;20388;-78
2022/03/24 03:04:28;;;;;;;18.45;12.75;;;;;;;6.28;57.37;101469.28;5114359;28;20507;-78
2022/03/24 03:06:56;;;;;;;15.52;12.25;;;;;;;6.04;56.62;101472.34;5114630;28;20397;-78
2022/03/24 03:09:22;;;;;;;19.52;11.80;;;;;;;5.65;57.72;101475.38;5079727;28;20464;-78
2022/03/24 03:11:48;;;;;;;17.02;12.35;;;;;;;5.73;57.51;101475.25;5086101;28;20900;-78
2022/03/24 03:14:17;;;;;;;16.60;12.20;;;;;;;5.81;57.53;101466.25;5097077;28;20475;-78
2022/03/24 03:16:44;;;;;;;17.63;12.52;;;;;;;5.79;57.14;101479.06;5087946;28;20392;-78
2022/03/24 03:19:10;;;;;;;18.50;13.60;;;;;;;5.80;57.12;101475.31;5110796;28;20387;-78
2022/03/24 03:21:36;;;;;;;17.80;12.27;;;;;;;5.79;57.91;101469.16;5114276;28;20739;-79
2022/03/24 03:24:03;;;;;;;17.15;12.68;;;;;;;5.74;58.30;101472.38;5096141;28;20409;-78
2022/03/24 03:26:28;;;;;;;17.00;12.93;;;;;;;5.73;58.31;101475.25;5090448;28;20408;-78
2022/03/24 03:28:54;;;;;;;14.80;12.43;;;;;;;5.71;58.40;101474.63;5064148;28;20406;-78
2022/03/24 03:31:22;;;;;;;17.43;12.33;;;;;;;5.66;58.14;101469.78;5108794;28;20487;-78
2022/03/24 03:33:48;;;;;;;18.60;13.32;;;;;;;5.60;58.52;101478.63;5113943;28;20422;-78
2022/03/24 03:36:13;;;;;;;16.90;13.03;;;;;;;5.58;58.04;101479.84;5114346;28;20474;-78
2022/03/24 03:38:39;;;;;;;18.23;12.32;;;;;;;5.54;58.95;101482.06;5087056;28;20392;-78
2022/03/24 03:41:06;;;;;;;20.08;13.23;;;;;;;5.50;58.70;101477.25;5096308;28;20879;-78
2022/03/24 03:43:32;;;;;;;17.80;13.35;;;;;;;5.47;58.86;101481.13;5090930;28;20409;-78
2022/03/24 03:45:57;;;;;;;20.52;14.38;;;;;;;5.43;58.60;101492.47;5079349;28;20503;-78
2022/03/24 03:48:23;;;;;;;15.80;12.57;;;;;;;5.40;58.98;101493.66;5108037;28;20487;-78
2022/03/24 03:50:48;;;;;;;21.60;14.90;;;;;;;5.41;59.03;101494.50;5088277;28;20443;-78
2022/03/24 03:53:14;;;;;;;18.33;13.67;;;;;;;5.38;59.39;101487.63;5094603;28;20401;-78
2022/03/24 03:55:40;;;;;;;20.27;13.30;;;;;;;5.38;59.43;101484.94;5092937;28;20472;-79
2022/03/24 03:58:07;;;;;;;20.55;14.00;;;;;;;5.37;59.33;101480.59;5087311;28;20721;-78
2022/03/24 04:03:18;;;;;;;19.43;13.70;;;;;;;5.34;59.62;101485.50;5113331;28;20412;-78
2022/03/24 04:05:44;;;;;;;20.27;14.35;;;;;;;5.35;60.20;101492.53;5113530;28;20840;-78
2022/03/24 04:08:10;;;;;;;16.90;13.65;;;;;;;5.33;59.95;101491.91;5107136;28;20483;-78
2022/03/24 04:10:38;;;;;;;19.07;13.93;;;;;;;5.36;59.93;101478.09;5104607;28;20867;-78
2022/03/24 04:13:04;;;;;;;21.70;14.10;;;;;;;5.42;60.35;101483.56;5113207;28;20446;-78
2022/03/24 04:15:29;;;;;;;22.95;14.05;;;;;;;5.46;59.95;101487.56;5113446;28;20545;-78
2022/03/24 04:17:55;;;;;;;20.67;14.03;;;;;;;5.47;60.07;101488.38;5106996;28;20426;-78
2022/03/24 04:20:21;;;;;;;19.83;13.53;;;;;;;5.47;60.29;101485.69;5079975;28;20404;-77
2022/03/24 04:22:48;;;;;;;17.23;13.43;;;;;;;5.43;60.02;101485.25;5113320;28;20392;-78
2022/03/24 04:25:14;;;;;;;22.13;13.45;;;;;;;5.37;60.64;101485.97;5094131;28;20416;-78
2022/03/24 04:27:39;;;;;;;17.88;14.32;;;;;;;5.34;60.35;101488.19;5089242;28;20459;-78
2022/03/24 04:30:05;;;;;;;20.63;14.23;;;;;;;5.31;60.38;101492.09;5103642;28;20420;-77
2022/03/24 04:32:30;;;;;;;18.90;13.73;;;;;;;5.30;60.09;101495.81;5095859;28;20406;-78
2022/03/24 04:34:55;;;;;;;18.67;13.30;;;;;;;5.29;60.46;101495.97;5092040;28;20983;-78
2022/03/24 04:37:21;;;;;;;19.87;14.00;;;;;;;5.27;60.56;101493.47;5071663;28;20415;-78
2022/03/24 04:39:49;;;;;;;21.83;13.90;;;;;;;5.26;60.19;101502.56;5092125;28;20394;-78
2022/03/24 04:42:15;;;;;;;18.27;13.63;;;;;;;5.24;60.17;101492.00;5094691;28;20380;-78
2022/03/24 04:44:40;;;;;;;17.97;14.07;;;;;;;5.23;60.60;101502.94;5108821;28;20464;-78
2022/03/24 04:47:06;;;;;;;17.20;12.93;;;;;;;5.20;60.36;101497.94;5102301;28;20774;-78
2022/03/24 04:49:31;;;;;;;18.80;14.00;;;;;;;5.17;60.63;101501.81;5097463;28;20406;-78
2022/03/24 04:51:57;;;;;;;19.90;14.70;;;;;;;5.15;60.70;101501.16;5087137;28;20492;-78
2022/03/24 04:54:22;;;;;;;19.58;14.27;;;;;;;5.12;61.21;101495.31;5093817;28;20423;-78
2022/03/24 04:56:48;;;;;;;22.57;14.50;;;;;;;5.13;61.09;101507.75;5095514;28;20404;-78
2022/03/24 04:59:13;;;;;;;20.00;14.03;;;;;;;5.10;61.07;101502.75;5075864;28;20400;-77
2022/03/24 05:01:38;;;;;;;22.83;13.97;;;;;;;5.06;61.02;101504.97;5112335;28;20441;-78
2022/03/24 05:04:04;;;;;;;17.90;14.27;;;;;;;5.05;60.67;101507.81;5091874;28;20400;-78
2022/03/24 05:06:30;;;;;;;20.87;13.27;;;;;;;5.05;60.82;101507.81;5088030;28;20542;-78
2022/03/24 05:08:56;;;;;;;18.58;14.32;;;;;;;5.05;60.79;101513.19;5089632;28;20771;-78
2022/03/24 05:11:21;;;;;;;20.57;14.03;;;;;;;5.03;60.79;101513.41;5090800;28;20384;-77
2022/03/24 05:13:46;;;;;;;21.33;14.53;;;;;;;5.03;60.89;101509.88;5097406;28;20406;-78
2022/03/24 05:16:11;;;;;;;31.20;17.93;;;;;;;5.02;60.88;101516.25;5081138;28;20414;-78
2022/03/24 05:18:38;;;;;;;33.33;17.90;;;;;;;4.99;60.70;101516.63;5112261;28;20440;-78
2022/03/24 05:21:04;;;;;;;27.15;16.50;;;;;;;4.96;60.61;101515.13;5111968;28;20388;-78
2022/03/24 05:23:30;;;;;;;38.67;20.52;;;;;;;4.96;60.39;101516.97;5066633;28;20413;-77
2022/03/24 05:25:56;;;;;;;85.13;32.80;;;;;;;4.95;60.57;101510.78;5071057;28;20453;-78
2022/03/24 05:28:22;;;;;;;74.28;29.17;;;;;;;4.92;60.76;101513.81;5086511;28;20542;-78
2022/03/24 05:30:47;;;;;;;53.63;24.10;;;;;;;4.88;60.88;101517.88;5074990;28;20411;-78
2022/03/24 05:33:13;;;;;;;31.23;18.37;;;;;;;4.87;60.85;101528.81;5085856;28;20839;-78
2022/03/24 05:35:38;;;;;;;29.73;17.80;;;;;;;4.83;61.07;101524.81;5076511;28;20401;-77
2022/03/24 05:38:04;;;;;;;22.80;16.20;;;;;;;4.65;61.06;101527.81;5075368;28;20479;-78
2022/03/24 05:40:31;;;;;;;24.03;16.30;;;;;;;4.66;61.84;101532.19;5088943;28;20511;-78
2022/03/24 05:42:56;;;;;;;25.25;15.70;;;;;;;4.74;61.69;101529.44;5082595;28;20445;-77
2022/03/24 05:45:21;;;;;;;21.20;14.37;;;;;;;4.79;61.60;101528.88;5087609;28;20458;-77
2022/03/24 05:47:47;;;;;;;25.20;15.37;;;;;;;4.83;61.53;101530.19;5088220;28;20413;-77
2022/03/24 05:50:13;;;;;;;24.37;15.37;;;;;;;4.88;61.73;101538.53;5070312;28;20403;-77
2022/03/24 05:52:39;;;;;;;23.35;15.45;;;;;;;4.90;61.73;101528.47;5093194;28;20398;-77
2022/03/24 05:55:05;;;;;;;20.25;14.70;;;;;;;4.96;61.97;101530.41;5094792;28;20581;-77
2022/03/24 05:57:30;;;;;;;21.63;14.80;;;;;;;5.01;61.75;101533.38;5076110;28;20906;-77
2022/03/24 05:59:56;;;;;;;26.00;15.82;;;;;;;5.03;61.61;101531.34;5080578;28;20394;-77
2022/03/24 06:02:21;;;;;;;22.97;15.77;;;;;;;5.10;61.42;101533.09;5091934;28;21025;-78
2022/03/24 06:04:48;;;;;;;21.73;16.03;;;;;;;5.18;61.92;101538.41;5091044;28;20757;-77
2022/03/24 06:07:17;;;;;;;27.70;16.80;;;;;;;5.24;61.96;101536.84;5091839;28;20405;-79
2022/03/24 06:09:42;;;;;;;22.08;15.48;;;;;;;5.34;61.39;101541.94;5087415;28;20401;-78
2022/03/24 06:12:09;;;;;;;22.23;14.40;;;;;;;5.27;61.63;101539.16;5100732;28;20452;-78
2022/03/24 06:14:36;;;;;;;21.27;14.52;;;;;;;5.26;61.07;101536.66;5073048;28;20406;-78
2022/03/24 06:17:02;;;;;;;23.57;15.50;;;;;;;5.41;61.45;101540.19;5092697;28;20489;-78
2022/03/24 06:19:27;;;;;;;36.67;16.40;;;;;;;5.54;61.05;101538.53;5106436;28;20832;-77
2022/03/24 06:21:52;;;;;;;22.10;15.30;;;;;;;5.49;61.05;101550.88;5081700;28;20388;-76
2022/03/24 06:24:18;;;;;;;21.63;16.00;;;;;;;5.41;61.50;101546.41;5111276;28;20779;-79
2022/03/24 06:26:43;;;;;;;23.60;16.73;;;;;;;5.44;61.42;101543.34;5103731;28;20398;-82
2022/03/24 06:29:11;;;;;;;24.97;17.50;;;;;;;5.48;61.84;101558.09;5109926;28;20762;-79
2022/03/24 06:31:36;;;;;;;24.23;16.92;;;;;;;5.39;62.60;101556.50;5095853;28;20734;-78
2022/03/24 06:34:02;;;;;;;24.55;17.48;;;;;;;5.59;62.34;101554.13;5084626;28;20396;-79
2022/03/24 06:36:27;;;;;;;27.50;18.53;;;;;;;5.68;62.43;101553.00;5102441;28;20401;-78
2022/03/24 06:38:53;;;;;;;27.60;19.63;;;;;;;5.63;62.93;101545.47;5113760;28;20378;-78
2022/03/24 06:41:18;;;;;;;25.40;19.15;;;;;;;5.64;63.50;101555.22;5096946;28;20380;-77
2022/03/24 06:43:43;;;;;;;25.97;18.93;;;;;;;5.80;62.66;101553.34;5079641;28;20389;-78
2022/03/24 06:46:09;;;;;;;28.20;18.83;;;;;;;6.15;61.86;101550.72;5109173;28;20458;-77
2022/03/24 06:48:38;;;;;;;27.63;18.27;;;;;;;6.42;61.37;101551.84;5064932;28;20531;-79
2022/03/24 06:51:04;;;;;;;23.83;17.60;;;;;;;6.76;60.29;101549.28;5093394;28;20389;-77
2022/03/24 06:53:30;;;;;;;24.42;17.02;;;;;;;6.76;60.14;101545.75;5094369;28;20403;-78
2022/03/24 06:55:55;;;;;;;25.33;17.80;;;;;;;6.53;61.10;101554.03;5084231;28;20400;-79
2022/03/24 06:58:22;;;;;;;28.13;19.37;;;;;;;6.60;61.30;101551.41;5109643;28;20487;-79
2022/03/24 07:00:50;;;;;;;23.33;16.58;;;;;;;6.86;60.76;101543.56;5103761;28;20469;-79
2022/03/24 07:03:16;;;;;;;25.58;18.40;;;;;;;7.12;60.45;101540.25;5085885;28;20428;-79
2022/03/24 07:05:42;;;;;;;28.45;19.65;;;;;;;7.10;60.15;101545.84;5095668;28;20912;-79
2022/03/24 07:08:09;;;;;;;24.88;19.33;;;;;;;7.03;60.91;101542.25;5107476;28;20394;-79
2022/03/24 07:10:34;;;;;;;30.35;19.45;;;;;;;6.92;61.56;101552.72;5091950;28;20384;-79
2022/03/24 07:13:00;;;;;;;26.30;19.83;;;;;;;6.90;61.99;101552.94;5091391;28;20395;-79
2022/03/24 07:15:26;;;;;;;31.03;19.50;;;;;;;6.90;61.86;101554.78;5104518;28;20868;-78
2022/03/24 07:17:54;;;;;;;26.98;18.80;;;;;;;6.83;62.60;101554.72;5091753;28;20403;-79
2022/03/24 07:20:20;;;;;;;25.35;19.33;;;;;;;7.07;61.41;101553.50;5098060;28;20445;-79
2022/03/24 07:22:46;;;;;;;25.08;18.30;;;;;;;7.25;61.13;101559.22;5092163;28;20384;-78
2022/03/24 07:25:11;;;;;;;27.35;20.13;;;;;;;7.42;59.86;101555.19;5114281;28;20417;-78
2022/03/24 07:27:37;;;;;;;25.90;19.57;;;;;;;7.59;59.15;101550.31;5097856;28;20390;-78
2022/03/24 07:30:04;;;;;;;27.10;19.10;;;;;;;7.60;59.81;101552.81;5109146;28;20639;-79
2022/03/24 07:32:29;;;;;;;26.50;19.13;;;;;;;7.70;58.77;101547.91;5114160;28;20404;-79
2022/03/24 07:34:55;;;;;;;25.80;19.27;;;;;;;7.85;59.04;101555.84;5077972;28;20487;-78
2022/03/24 07:37:20;;;;;;;30.03;21.33;;;;;;;7.91;58.41;101552.34;5067538;28;20724;-78
2022/03/24 07:39:45;;;;;;;30.00;21.47;;;;;;;7.99;58.68;101549.47;5109769;28;20380;-79
2022/03/24 07:42:12;;;;;;;28.20;21.52;;;;;;;8.08;58.06;101553.66;5099068;28;20537;-78
2022/03/24 07:44:37;;;;;;;29.55;19.98;;;;;;;8.11;57.33;101555.13;5103331;28;20490;-78
2022/03/24 07:47:02;;;;;;;29.83;19.70;;;;;;;8.10;58.60;101561.56;5101013;28;20856;-79
2022/03/24 07:49:28;;;;;;;25.47;19.70;;;;;;;8.19;57.25;101550.41;5113374;28;20391;-78
2022/03/24 07:51:53;;;;;;;29.43;21.77;;;;;;;8.19;57.86;101553.09;5113317;28;20428;-79
2022/03/24 07:55:08;;;;;;;34.22;21.88;;;;;;;8.32;57.84;101550.47;5101864;28;20488;-79
2022/03/24 07:57:34;;;;;;;32.63;20.95;;;;;;;8.38;58.08;101548.81;5011118;28;20393;-79
2022/03/24 08:00:00;;;;;;;29.97;20.37;;;;;;;8.53;57.96;101557.56;5011445;28;20397;-79
2022/03/24 08:02:25;;;;;;;28.27;21.35;;;;;;;8.64;57.55;101550.72;5048688;28;20435;-79
2022/03/24 08:04:52;;;;;;;26.30;21.17;;;;;;;8.67;57.71;101559.25;5107871;28;20496;-79
2022/03/24 08:07:18;;;;;;;28.05;20.60;;;;;;;8.71;57.54;101548.88;5113631;28;20384;-79
2022/03/24 08:09:43;;;;;;;28.53;22.13;;;;;;;8.69;57.25;101551.75;5111267;28;20818;-79
2022/03/24 08:12:09;;;;;;;29.30;20.67;;;;;;;8.89;57.36;101559.91;5100836;28;20404;-79
2022/03/24 08:14:34;;;;;;;30.67;20.50;;;;;;;9.01;56.29;101560.97;5092999;28;20406;-78
2022/03/24 08:17:00;;;;;;;27.97;19.10;;;;;;;8.96;56.62;101559.94;5101789;28;20392;-79
2022/03/24 08:19:25;;;;;;;27.30;19.87;;;;;;;9.10;56.65;101557.00;5083892;28;20623;-79
2022/03/24 08:21:50;;;;;;;28.10;20.27;;;;;;;9.22;55.34;101551.81;5107990;28;20809;-79
2022/03/24 08:24:16;;;;;;;27.93;20.93;;;;;;;9.47;55.55;101549.25;5099803;28;20443;-79
2022/03/24 08:26:41;;;;;;;25.97;20.53;;;;;;;9.70;54.81;101561.28;5102861;28;20864;-79
2022/03/24 08:29:06;;;;;;;29.23;20.07;;;;;;;9.81;54.34;101552.50;5107769;28;20395;-79
2022/03/24 08:31:33;;;;;;;26.37;19.17;;;;;;;9.99;53.90;101550.97;5106890;28;20400;-78
2022/03/24 08:33:58;;;;;;;24.92;19.55;;;;;;;10.15;52.77;101558.66;5105562;28;20837;-78
2022/03/24 08:36:24;;;;;;;27.40;20.90;;;;;;;10.35;52.23;101562.94;5089959;28;20482;-77
2022/03/24 08:38:50;;;;;;;35.83;20.23;;;;;;;10.53;51.28;101559.50;5078018;28;20430;-77
2022/03/24 08:41:15;;;;;;;24.87;19.37;;;;;;;10.68;51.25;101568.16;5110935;28;20879;-76
2022/03/24 08:43:40;;;;;;;28.15;20.65;;;;;;;10.79;51.58;101558.50;5102462;28;20441;-78
2022/03/24 08:46:08;;;;;;;26.57;20.23;;;;;;;11.02;51.30;101560.59;5091110;28;20429;-77
2022/03/24 08:48:34;;;;;;;25.40;20.17;;;;;;;11.24;50.78;101557.28;5075839;28;20821;-77
2022/03/24 08:50:59;;;;;;;28.00;19.97;;;;;;;11.32;51.27;101561.59;5093746;28;20464;-76
2022/03/24 08:53:25;;;;;;;26.17;19.88;;;;;;;11.44;50.81;101566.06;5100253;28;20392;-76
2022/03/24 08:55:50;;;;;;;29.07;20.77;;;;;;;11.50;50.70;101556.19;5088498;28;20562;-77
2022/03/24 08:58:18;;;;;;;27.47;20.77;;;;;;;11.60;50.64;101559.22;5106608;28;20389;-77
2022/03/24 09:00:47;;;;;;;26.50;20.38;;;;;;;11.86;49.80;101555.41;5091768;28;20393;-77
2022/03/24 09:03:12;;;;;;;32.63;21.67;;;;;;;12.05;49.35;101558.97;5098680;28;20392;-77
2022/03/24 09:05:38;;;;;;;29.97;21.97;;;;;;;12.11;47.91;101561.59;5097927;28;20410;-77
2022/03/24 09:08:04;;;;;;;31.10;21.60;;;;;;;12.35;47.88;101560.63;5112062;28;20886;-77
2022/03/24 09:10:30;;;;;;;27.88;21.50;;;;;;;12.73;46.75;101562.19;5085323;28;20401;-77
2022/03/24 09:12:55;;;;;;;30.73;21.65;;;;;;;13.08;46.45;101554.94;5087648;28;20406;-77
2022/03/24 09:15:20;;;;;;;36.80;21.80;;;;;;;13.46;45.01;101557.25;5058388;28;20427;-77
2022/03/24 09:17:47;;;;;;;25.90;20.77;;;;;;;13.61;43.96;101556.75;5088225;28;20394;-78
2022/03/24 09:20:18;;;;;;;29.45;21.17;;;;;;;13.78;44.25;101554.97;5102794;28;20420;-77
2022/03/24 09:22:46;;;;;;;27.23;22.38;;;;;;;14.20;42.42;101558.28;5074300;28;20880;-78
2022/03/24 09:25:12;;;;;;;29.80;21.98;;;;;;;14.91;40.05;101558.59;5097438;28;20405;-78
2022/03/24 09:27:38;;;;;;;26.52;21.77;;;;;;;15.48;38.64;101555.69;5079848;28;20948;-78
2022/03/24 09:30:05;;;;;;;29.67;23.10;;;;;;;15.80;36.20;101554.00;5094276;28;20755;-77
2022/03/24 09:32:31;;;;;;;28.30;22.30;;;;;;;16.49;35.59;101557.00;5111912;28;20392;-77
2022/03/24 09:34:57;;;;;;;31.17;23.37;;;;;;;16.91;33.78;101555.28;5090115;28;20499;-78
2022/03/24 09:37:23;;;;;;;31.30;23.93;;;;;;;17.65;31.71;101554.50;5086548;28;20552;-78
2022/03/24 09:39:50;;;;;;;32.47;24.58;;;;;;;18.04;30.88;101561.28;5105698;28;20550;-78
2022/03/24 09:42:15;;;;;;;34.15;24.45;;;;;;;18.84;29.30;101554.38;5098344;28;20387;-79
2022/03/24 09:44:41;;;;;;;30.87;24.43;;;;;;;19.67;28.33;101553.78;5107277;28;20396;-77
2022/03/24 09:47:11;;;;;;;37.42;25.67;;;;;;;20.84;27.70;101556.84;5081728;28;20421;-78
2022/03/24 09:49:37;;;;;;;29.00;24.08;;;;;;;21.95;24.88;101552.25;5075450;28;20394;-77
2022/03/24 09:52:02;;;;;;;35.88;24.35;;;;;;;22.96;24.09;101556.38;5101378;28;20817;-77
2022/03/24 09:54:28;;;;;;;29.27;23.80;;;;;;;23.71;22.74;101557.03;5076153;28;20495;-77
2022/03/24 09:56:53;;;;;;;29.00;23.58;;;;;;;25.14;20.56;101557.19;5088272;28;20786;-78
2022/03/24 09:59:20;;;;;;;29.30;21.90;;;;;;;26.55;18.95;101548.78;5087900;28;20394;-78
2022/03/24 10:01:45;;;;;;;28.33;23.13;;;;;;;27.84;17.93;101550.25;5089067;28;20396;-77
2022/03/24 10:04:14;;;;;;;27.27;22.70;;;;;;;28.62;16.82;101544.22;5076709;28;20754;-78
2022/03/24 10:06:57;;;;;;;26.55;22.08;;;;;;;28.42;16.46;101553.41;5082013;28;20725;-78
2022/03/24 10:09:46;;;;;;;29.95;22.27;;;;;;;29.17;16.71;101549.50;5110678;28;20459;-77
2022/03/24 10:12:21;;;;;;;25.70;21.77;;;;;;;30.02;16.24;101546.91;5075476;28;20868;-78
2022/03/24 10:15:04;;;;;;;26.33;20.45;;;;;;;29.66;15.11;101547.69;5097188;28;20416;-78
2022/03/24 10:17:31;;;;;;;21.67;19.42;;;;;;;30.19;14.36;101541.06;5089338;28;20406;-77
2022/03/24 10:20:05;;;;;;;23.50;20.70;;;;;;;30.42;14.29;101541.41;5086835;28;20534;-78
2022/03/24 10:22:32;;;;;;;22.85;20.08;;;;;;;31.75;13.91;101546.41;5099104;28;20405;-78
2022/03/24 10:24:58;;;;;;;48.83;21.20;;;;;;;31.85;13.45;101543.06;5107172;28;20770;-78
2022/03/24 10:27:27;;;;;;;22.65;20.33;;;;;;;31.88;12.81;101547.94;5103453;28;20407;-78
2022/03/24 10:29:57;;;;;;;21.20;19.00;;;;;;;32.45;12.95;101547.34;5086994;28;20388;-78
2022/03/24 10:32:31;;;;;;;23.33;19.40;;;;;;;32.50;12.23;101544.25;5100112;28;20522;-77
2022/03/24 10:35:17;;;;;;;22.85;19.67;;;;;;;32.75;13.08;101537.22;5097765;28;20404;-78
2022/03/24 10:37:50;;;;;;;21.23;18.00;;;;;;;32.88;11.64;101532.25;5114779;28;20388;-79
2022/03/24 10:40:16;;;;;;;23.25;20.75;;;;;;;32.98;12.52;101528.03;5096896;28;20891;-78
2022/03/24 10:42:42;;;;;;;24.70;22.17;;;;;;;32.84;12.57;101531.34;5113531;28;20396;-78
2022/03/24 10:45:19;;;;;;;27.87;23.57;;;;;;;32.66;12.69;101530.19;5103593;28;20409;-78
2022/03/24 10:47:56;;;;;;;28.98;21.90;;;;;;;32.95;12.47;101523.16;5079754;28;20433;-78
2022/03/24 10:50:29;;;;;;;22.95;19.83;;;;;;;32.95;12.33;101528.78;5096639;28;20713;-78
2022/03/24 10:53:00;;;;;;;28.58;21.95;;;;;;;33.42;12.57;101529.31;5095076;28;20858;-78
2022/03/24 10:55:44;;;;;;;23.48;21.05;;;;;;;33.25;12.52;101525.00;5112182;28;20436;-78
2022/03/24 10:58:22;;;;;;;26.08;20.67;;;;;;;33.86;12.16;101524.88;5111142;28;20381;-78
2022/03/24 11:00:52;;;;;;;20.83;18.50;;;;;;;33.64;11.61;101527.72;5068153;28;20416;-78
2022/03/24 11:03:18;;;;;;;21.73;18.47;;;;;;;33.51;12.01;101520.63;5089588;28;20728;-78
2022/03/24 11:05:44;;;;;;;21.40;19.13;;;;;;;33.11;12.34;101516.28;5114876;28;20496;-77
2022/03/24 11:08:09;;;;;;;20.88;18.80;;;;;;;33.96;11.78;101525.41;5107487;28;20390;-79
2022/03/24 11:10:55;;;;;;;22.67;20.47;;;;;;;34.37;11.47;101519.66;5085136;28;20411;-78
2022/03/24 11:13:39;;;;;;;22.77;20.13;;;;;;;34.12;12.36;101523.31;5114354;28;20395;-78
2022/03/24 11:16:05;;;;;;;24.80;21.93;;;;;;;33.45;12.55;101513.69;5114362;28;20392;-78
2022/03/24 11:18:31;;;;;;;27.27;23.40;;;;;;;33.37;12.67;101519.19;5095760;28;20400;-78
2022/03/24 11:21:08;;;;;;;23.60;21.07;;;;;;;34.31;12.11;101514.75;5085273;28;20397;-78